sensor_id;sensor_type;location;lat;lon;timestamp;temperature;humidity
48454;DHT22;34261;55.678;12.464;2024-01-07T00:02:14;-3.90;99.90
48454;DHT22;34261;55.678;12.464;2024-01-07T00:04:42;-3.90;99.90
48454;DHT22;34261;55.678;12.464;2024-01-07T00:07:08;-3.80;99.90
48454;DHT22;34261;55.678;12.464;2024-01-07T00:09:34;-3.90;99.90
48454;DHT22;34261;55.678;12.464;2024-01-07T00:11:59;-3.90;99.90
48454;DHT22;34261;55.678;12.464;2024-01-07T00:14:25;-3.90;99.90
48454;DHT22;34261;55.678;12.464;2024-01-07T00:16:50;-3.90;99.90
48454;DHT22;34261;55.678;12.464;2024-01-07T00:19:16;-3.90;99.90
48454;DHT22;34261;55.678;12.464;2024-01-07T00:21:42;-3.90;99.90
48454;DHT22;34261;55.678;12.464;2024-01-07T00:24:07;-3.90;99.90
48454;DHT22;34261;55.678;12.464;2024-01-07T00:26:33;-4.00;99.90
48454;DHT22;34261;55.678;12.464;2024-01-07T00:28:59;-4.00;99.90
48454;DHT22;34261;55.678;12.464;2024-01-07T00:31:24;-4.00;99.90
48454;DHT22;34261;55.678;12.464;2024-01-07T00:33:50;-4.00;99.90
48454;DHT22;34261;55.678;12.464;2024-01-07T00:36:16;-4.00;99.90
48454;DHT22;34261;55.678;12.464;2024-01-07T00:38:41;-4.00;99.90
48454;DHT22;34261;55.678;12.464;2024-01-07T00:41:07;-4.00;99.90
48454;DHT22;34261;55.678;12.464;2024-01-07T00:43:32;-4.00;99.90
48454;DHT22;34261;55.678;12.464;2024-01-07T00:45:58;-4.00;99.90
48454;DHT22;34261;55.678;12.464;2024-01-07T00:48:24;-4.00;99.90
48454;DHT22;34261;55.678;12.464;2024-01-07T00:50:49;-4.00;99.90
48454;DHT22;34261;55.678;12.464;2024-01-07T00:53:15;-3.90;99.90
48454;DHT22;34261;55.678;12.464;2024-01-07T00:55:41;-3.90;99.90
48454;DHT22;34261;55.678;12.464;2024-01-07T00:58:06;-3.90;99.90
48454;DHT22;34261;55.678;12.464;2024-01-07T01:00:32;-4.00;99.90
48454;DHT22;34261;55.678;12.464;2024-01-07T01:02:57;-4.00;99.90
48454;DHT22;34261;55.678;12.464;2024-01-07T01:05:23;-4.00;99.90
48454;DHT22;34261;55.678;12.464;2024-01-07T01:07:49;-4.00;99.90
48454;DHT22;34261;55.678;12.464;2024-01-07T01:10:15;-4.00;99.90
48454;DHT22;34261;55.678;12.464;2024-01-07T01:12:42;-4.00;99.90
48454;DHT22;34261;55.678;12.464;2024-01-07T01:15:08;-4.00;99.90
48454;DHT22;34261;55.678;12.464;2024-01-07T01:17:34;-4.10;99.90
48454;DHT22;34261;55.678;12.464;2024-01-07T01:20:00;-4.10;99.90
48454;DHT22;34261;55.678;12.464;2024-01-07T01:22:26;-4.10;99.90
48454;DHT22;34261;55.678;12.464;2024-01-07T01:24:56;-4.20;99.90
48454;DHT22;34261;55.678;12.464;2024-01-07T01:27:22;-4.20;99.90
48454;DHT22;34261;55.678;12.464;2024-01-07T01:29:48;-4.30;99.90
48454;DHT22;34261;55.678;12.464;2024-01-07T01:32:13;-4.40;99.90
48454;DHT22;34261;55.678;12.464;2024-01-07T01:34:40;-4.40;99.90
48454;DHT22;34261;55.678;12.464;2024-01-07T01:37:08;-4.50;99.90
48454;DHT22;34261;55.678;12.464;2024-01-07T01:39:34;-4.50;99.90
48454;DHT22;34261;55.678;12.464;2024-01-07T01:42:00;-4.50;99.90
48454;DHT22;34261;55.678;12.464;2024-01-07T01:44:26;-4.50;99.90
48454;DHT22;34261;55.678;12.464;2024-01-07T01:46:55;-4.50;99.90
48454;DHT22;34261;55.678;12.464;2024-01-07T01:49:21;-4.50;99.90
48454;DHT22;34261;55.678;12.464;2024-01-07T01:51:47;-4.50;99.90
48454;DHT22;34261;55.678;12.464;2024-01-07T01:54:13;-4.50;99.90
48454;DHT22;34261;55.678;12.464;2024-01-07T01:56:39;-4.50;99.90
48454;DHT22;34261;55.678;12.464;2024-01-07T01:59:04;-4.50;99.90
48454;DHT22;34261;55.678;12.464;2024-01-07T02:01:30;-4.60;99.90
48454;DHT22;34261;55.678;12.464;2024-01-07T02:03:57;-4.70;99.90
48454;DHT22;34261;55.678;12.464;2024-01-07T02:06:23;-4.80;99.90
48454;DHT22;34261;55.678;12.464;2024-01-07T02:08:49;-4.90;99.90
48454;DHT22;34261;55.678;12.464;2024-01-07T02:11:19;-5.00;99.90
48454;DHT22;34261;55.678;12.464;2024-01-07T02:13:45;-5.00;99.90
48454;DHT22;34261;55.678;12.464;2024-01-07T02:16:12;-5.00;99.90
48454;DHT22;34261;55.678;12.464;2024-01-07T02:18:42;-5.10;99.90
48454;DHT22;34261;55.678;12.464;2024-01-07T02:21:09;-5.10;99.90
48454;DHT22;34261;55.678;12.464;2024-01-07T02:23:35;-5.20;99.90
48454;DHT22;34261;55.678;12.464;2024-01-07T02:26:00;-5.20;99.90
48454;DHT22;34261;55.678;12.464;2024-01-07T02:28:26;-5.20;99.90
48454;DHT22;34261;55.678;12.464;2024-01-07T02:30:52;-5.30;99.90
48454;DHT22;34261;55.678;12.464;2024-01-07T02:33:17;-5.30;99.90
48454;DHT22;34261;55.678;12.464;2024-01-07T02:35:43;-5.30;99.90
48454;DHT22;34261;55.678;12.464;2024-01-07T02:38:09;-5.40;99.90
48454;DHT22;34261;55.678;12.464;2024-01-07T02:40:34;-5.40;99.90
48454;DHT22;34261;55.678;12.464;2024-01-07T02:43:00;-5.40;99.90
48454;DHT22;34261;55.678;12.464;2024-01-07T02:45:26;-5.40;99.90
48454;DHT22;34261;55.678;12.464;2024-01-07T02:47:51;-5.40;99.90
48454;DHT22;34261;55.678;12.464;2024-01-07T02:50:17;-5.40;99.90
48454;DHT22;34261;55.678;12.464;2024-01-07T02:52:43;-5.50;99.90
48454;DHT22;34261;55.678;12.464;2024-01-07T02:55:08;-5.50;99.90
48454;DHT22;34261;55.678;12.464;2024-01-07T02:57:34;-5.50;99.90
48454;DHT22;34261;55.678;12.464;2024-01-07T03:00:00;-5.60;99.90
48454;DHT22;34261;55.678;12.464;2024-01-07T03:02:26;-5.50;99.90
48454;DHT22;34261;55.678;12.464;2024-01-07T03:04:52;-5.50;99.90
48454;DHT22;34261;55.678;12.464;2024-01-07T03:07:18;-5.50;99.90
48454;DHT22;34261;55.678;12.464;2024-01-07T03:09:44;-5.40;99.90
48454;DHT22;34261;55.678;12.464;2024-01-07T03:12:10;-5.50;99.90
48454;DHT22;34261;55.678;12.464;2024-01-07T03:14:35;-5.50;99.90
48454;DHT22;34261;55.678;12.464;2024-01-07T03:17:01;-5.60;99.90
48454;DHT22;34261;55.678;12.464;2024-01-07T03:19:27;-5.60;99.90
48454;DHT22;34261;55.678;12.464;2024-01-07T03:21:52;-5.60;99.90
48454;DHT22;34261;55.678;12.464;2024-01-07T03:24:18;-5.50;99.90
48454;DHT22;34261;55.678;12.464;2024-01-07T03:26:44;-5.50;99.90
48454;DHT22;34261;55.678;12.464;2024-01-07T03:29:11;-5.50;99.90
48454;DHT22;34261;55.678;12.464;2024-01-07T03:31:36;-5.40;99.90
48454;DHT22;34261;55.678;12.464;2024-01-07T03:34:02;-5.40;99.90
48454;DHT22;34261;55.678;12.464;2024-01-07T03:37:00;-5.40;99.90
48454;DHT22;34261;55.678;12.464;2024-01-07T03:39:25;-5.30;99.90
48454;DHT22;34261;55.678;12.464;2024-01-07T03:41:58;-5.30;99.90
48454;DHT22;34261;55.678;12.464;2024-01-07T03:44:23;-5.30;99.90
48454;DHT22;34261;55.678;12.464;2024-01-07T03:46:49;-5.30;99.90
48454;DHT22;34261;55.678;12.464;2024-01-07T03:49:14;-5.30;99.90
48454;DHT22;34261;55.678;12.464;2024-01-07T03:51:40;-5.30;99.90
48454;DHT22;34261;55.678;12.464;2024-01-07T03:54:06;-5.20;99.90
48454;DHT22;34261;55.678;12.464;2024-01-07T03:56:31;-5.20;99.90
48454;DHT22;34261;55.678;12.464;2024-01-07T03:58:57;-5.20;99.90
48454;DHT22;34261;55.678;12.464;2024-01-07T04:01:23;-5.20;99.90
48454;DHT22;34261;55.678;12.464;2024-01-07T04:03:48;-5.10;99.90
48454;DHT22;34261;55.678;12.464;2024-01-07T04:06:14;-5.10;99.90
48454;DHT22;34261;55.678;12.464;2024-01-07T04:08:39;-5.10;99.90
48454;DHT22;34261;55.678;12.464;2024-01-07T04:11:05;-5.10;99.90
48454;DHT22;34261;55.678;12.464;2024-01-07T04:13:31;-5.00;99.90
48454;DHT22;34261;55.678;12.464;2024-01-07T04:15:56;-5.00;99.90
48454;DHT22;34261;55.678;12.464;2024-01-07T04:18:22;-5.00;99.90
48454;DHT22;34261;55.678;12.464;2024-01-07T04:20:47;-4.90;99.90
48454;DHT22;34261;55.678;12.464;2024-01-07T04:23:13;-4.90;99.90
48454;DHT22;34261;55.678;12.464;2024-01-07T04:25:39;-5.00;99.90
48454;DHT22;34261;55.678;12.464;2024-01-07T04:28:06;-5.10;99.90
48454;DHT22;34261;55.678;12.464;2024-01-07T04:30:32;-5.10;99.90
48454;DHT22;34261;55.678;12.464;2024-01-07T04:32:57;-5.20;99.90
48454;DHT22;34261;55.678;12.464;2024-01-07T04:35:23;-5.20;99.90
48454;DHT22;34261;55.678;12.464;2024-01-07T04:37:48;-5.30;99.90
48454;DHT22;34261;55.678;12.464;2024-01-07T04:40:14;-5.30;99.90
48454;DHT22;34261;55.678;12.464;2024-01-07T04:42:40;-5.30;99.90
48454;DHT22;34261;55.678;12.464;2024-01-07T04:45:06;-5.40;99.90
48454;DHT22;34261;55.678;12.464;2024-01-07T04:47:33;-5.40;99.90
48454;DHT22;34261;55.678;12.464;2024-01-07T04:50:03;-5.30;99.90
48454;DHT22;34261;55.678;12.464;2024-01-07T04:52:28;-5.30;99.90
48454;DHT22;34261;55.678;12.464;2024-01-07T04:54:54;-5.40;99.90
48454;DHT22;34261;55.678;12.464;2024-01-07T04:57:21;-5.40;99.90
48454;DHT22;34261;55.678;12.464;2024-01-07T04:59:48;-5.40;99.90
48454;DHT22;34261;55.678;12.464;2024-01-07T05:02:14;-5.40;99.90
48454;DHT22;34261;55.678;12.464;2024-01-07T05:04:40;-5.50;99.90
48454;DHT22;34261;55.678;12.464;2024-01-07T05:07:06;-5.50;99.90
48454;DHT22;34261;55.678;12.464;2024-01-07T05:09:34;-5.50;99.90
48454;DHT22;34261;55.678;12.464;2024-01-07T05:12:00;-5.50;99.90
48454;DHT22;34261;55.678;12.464;2024-01-07T05:14:26;-5.50;99.90
48454;DHT22;34261;55.678;12.464;2024-01-07T05:16:54;-5.50;99.90
48454;DHT22;34261;55.678;12.464;2024-01-07T05:19:20;-5.50;99.90
48454;DHT22;34261;55.678;12.464;2024-01-07T05:21:45;-5.50;99.90
48454;DHT22;34261;55.678;12.464;2024-01-07T05:24:11;-5.50;99.90
48454;DHT22;34261;55.678;12.464;2024-01-07T05:26:41;-5.50;99.90
48454;DHT22;34261;55.678;12.464;2024-01-07T05:29:07;-5.60;99.90
48454;DHT22;34261;55.678;12.464;2024-01-07T05:31:33;-5.50;99.90
48454;DHT22;34261;55.678;12.464;2024-01-07T05:33:58;-5.50;99.90
48454;DHT22;34261;55.678;12.464;2024-01-07T05:36:24;-5.50;99.90
48454;DHT22;34261;55.678;12.464;2024-01-07T05:38:50;-5.50;99.90
48454;DHT22;34261;55.678;12.464;2024-01-07T05:41:15;-5.60;99.90
48454;DHT22;34261;55.678;12.464;2024-01-07T05:43:41;-5.50;99.90
48454;DHT22;34261;55.678;12.464;2024-01-07T05:46:06;-5.60;99.90
48454;DHT22;34261;55.678;12.464;2024-01-07T05:48:46;-5.60;99.90
48454;DHT22;34261;55.678;12.464;2024-01-07T05:51:12;-5.70;99.90
48454;DHT22;34261;55.678;12.464;2024-01-07T05:53:39;-5.70;99.90
48454;DHT22;34261;55.678;12.464;2024-01-07T05:56:05;-5.80;99.90
48454;DHT22;34261;55.678;12.464;2024-01-07T05:58:31;-5.80;99.90
48454;DHT22;34261;55.678;12.464;2024-01-07T06:00:57;-5.80;99.90
48454;DHT22;34261;55.678;12.464;2024-01-07T06:03:22;-5.80;99.90
48454;DHT22;34261;55.678;12.464;2024-01-07T06:05:48;-5.80;99.90
48454;DHT22;34261;55.678;12.464;2024-01-07T06:08:16;-5.80;99.90
48454;DHT22;34261;55.678;12.464;2024-01-07T06:10:43;-5.80;99.90
48454;DHT22;34261;55.678;12.464;2024-01-07T06:13:08;-5.80;99.90
48454;DHT22;34261;55.678;12.464;2024-01-07T06:15:34;-5.70;99.90
48454;DHT22;34261;55.678;12.464;2024-01-07T06:18:00;-5.60;99.90
48454;DHT22;34261;55.678;12.464;2024-01-07T06:20:25;-5.60;99.90
48454;DHT22;34261;55.678;12.464;2024-01-07T06:22:51;-5.60;99.90
48454;DHT22;34261;55.678;12.464;2024-01-07T06:25:16;-5.60;99.90
48454;DHT22;34261;55.678;12.464;2024-01-07T06:27:42;-5.50;99.90
48454;DHT22;34261;55.678;12.464;2024-01-07T06:30:08;-5.40;99.90
48454;DHT22;34261;55.678;12.464;2024-01-07T06:32:34;-5.30;99.90
48454;DHT22;34261;55.678;12.464;2024-01-07T06:35:01;-5.20;99.90
48454;DHT22;34261;55.678;12.464;2024-01-07T06:37:28;-5.20;99.90
48454;DHT22;34261;55.678;12.464;2024-01-07T06:39:54;-5.10;99.90
48454;DHT22;34261;55.678;12.464;2024-01-07T06:42:20;-5.10;99.90
48454;DHT22;34261;55.678;12.464;2024-01-07T06:44:46;-5.10;99.90
48454;DHT22;34261;55.678;12.464;2024-01-07T06:47:12;-5.10;99.90
48454;DHT22;34261;55.678;12.464;2024-01-07T06:49:37;-5.10;99.90
48454;DHT22;34261;55.678;12.464;2024-01-07T06:52:04;-5.10;99.90
48454;DHT22;34261;55.678;12.464;2024-01-07T06:54:30;-5.10;99.90
48454;DHT22;34261;55.678;12.464;2024-01-07T06:56:56;-5.10;99.90
48454;DHT22;34261;55.678;12.464;2024-01-07T06:59:21;-5.10;99.90
48454;DHT22;34261;55.678;12.464;2024-01-07T07:01:47;-5.10;99.90
48454;DHT22;34261;55.678;12.464;2024-01-07T07:04:13;-5.10;99.90
48454;DHT22;34261;55.678;12.464;2024-01-07T07:06:38;-5.20;99.90
48454;DHT22;34261;55.678;12.464;2024-01-07T07:09:04;-5.20;99.90
48454;DHT22;34261;55.678;12.464;2024-01-07T07:11:29;-5.20;99.90
48454;DHT22;34261;55.678;12.464;2024-01-07T07:13:55;-5.30;99.90
48454;DHT22;34261;55.678;12.464;2024-01-07T07:16:21;-5.30;99.90
48454;DHT22;34261;55.678;12.464;2024-01-07T07:18:47;-5.30;99.90
48454;DHT22;34261;55.678;12.464;2024-01-07T07:21:12;-5.30;99.90
48454;DHT22;34261;55.678;12.464;2024-01-07T07:23:38;-5.30;99.90
48454;DHT22;34261;55.678;12.464;2024-01-07T07:26:03;-5.30;99.90
48454;DHT22;34261;55.678;12.464;2024-01-07T07:28:29;-5.30;99.90
48454;DHT22;34261;55.678;12.464;2024-01-07T07:30:55;-5.30;99.90
48454;DHT22;34261;55.678;12.464;2024-01-07T07:33:20;-5.40;99.90
48454;DHT22;34261;55.678;12.464;2024-01-07T07:35:46;-5.40;99.90
48454;DHT22;34261;55.678;12.464;2024-01-07T07:38:12;-5.50;99.90
48454;DHT22;34261;55.678;12.464;2024-01-07T07:40:37;-5.40;99.90
48454;DHT22;34261;55.678;12.464;2024-01-07T07:43:04;-5.40;99.90
48454;DHT22;34261;55.678;12.464;2024-01-07T07:45:30;-5.50;99.90
48454;DHT22;34261;55.678;12.464;2024-01-07T07:47:55;-5.50;99.90
48454;DHT22;34261;55.678;12.464;2024-01-07T07:50:21;-5.50;99.90
48454;DHT22;34261;55.678;12.464;2024-01-07T07:52:47;-5.50;99.90
48454;DHT22;34261;55.678;12.464;2024-01-07T07:55:12;-5.60;99.90
48454;DHT22;34261;55.678;12.464;2024-01-07T07:57:38;-5.50;99.90
48454;DHT22;34261;55.678;12.464;2024-01-07T08:00:06;-5.50;99.90
48454;DHT22;34261;55.678;12.464;2024-01-07T08:02:32;-5.50;99.90
48454;DHT22;34261;55.678;12.464;2024-01-07T08:04:57;-5.50;99.90
48454;DHT22;34261;55.678;12.464;2024-01-07T08:07:23;-5.50;99.90
48454;DHT22;34261;55.678;12.464;2024-01-07T08:09:49;-5.40;99.90
48454;DHT22;34261;55.678;12.464;2024-01-07T08:12:14;-5.30;99.90
48454;DHT22;34261;55.678;12.464;2024-01-07T08:14:40;-5.20;99.90
48454;DHT22;34261;55.678;12.464;2024-01-07T08:17:09;-5.10;99.90
48454;DHT22;34261;55.678;12.464;2024-01-07T08:19:36;-5.00;99.90
48454;DHT22;34261;55.678;12.464;2024-01-07T08:22:01;-5.00;99.90
48454;DHT22;34261;55.678;12.464;2024-01-07T08:24:27;-4.80;99.90
48454;DHT22;34261;55.678;12.464;2024-01-07T08:26:53;-4.80;99.90
48454;DHT22;34261;55.678;12.464;2024-01-07T08:29:19;-4.60;99.90
48454;DHT22;34261;55.678;12.464;2024-01-07T08:31:45;-4.60;99.90
48454;DHT22;34261;55.678;12.464;2024-01-07T08:34:10;-4.50;99.90
48454;DHT22;34261;55.678;12.464;2024-01-07T08:36:36;-4.40;99.90
48454;DHT22;34261;55.678;12.464;2024-01-07T08:39:01;-4.20;99.90
48454;DHT22;34261;55.678;12.464;2024-01-07T08:41:27;-4.10;99.90
48454;DHT22;34261;55.678;12.464;2024-01-07T08:43:53;-4.00;99.90
48454;DHT22;34261;55.678;12.464;2024-01-07T08:46:22;-3.90;99.90
48454;DHT22;34261;55.678;12.464;2024-01-07T08:48:47;-3.70;99.90
48454;DHT22;34261;55.678;12.464;2024-01-07T08:51:13;-3.60;99.90
48454;DHT22;34261;55.678;12.464;2024-01-07T08:53:39;-3.40;99.90
48454;DHT22;34261;55.678;12.464;2024-01-07T08:56:05;-3.30;99.90
48454;DHT22;34261;55.678;12.464;2024-01-07T08:58:32;-3.20;99.90
48454;DHT22;34261;55.678;12.464;2024-01-07T09:00:58;-3.10;99.90
48454;DHT22;34261;55.678;12.464;2024-01-07T09:03:24;-3.00;99.90
48454;DHT22;34261;55.678;12.464;2024-01-07T09:05:52;-2.90;99.90
48454;DHT22;34261;55.678;12.464;2024-01-07T09:08:18;-2.80;99.90
48454;DHT22;34261;55.678;12.464;2024-01-07T09:10:44;-2.80;99.90
48454;DHT22;34261;55.678;12.464;2024-01-07T09:13:09;-2.70;99.90
48454;DHT22;34261;55.678;12.464;2024-01-07T09:15:35;-2.60;99.90
48454;DHT22;34261;55.678;12.464;2024-01-07T09:18:01;-2.60;99.90
48454;DHT22;34261;55.678;12.464;2024-01-07T09:20:27;-2.50;99.90
48454;DHT22;34261;55.678;12.464;2024-01-07T09:22:53;-2.40;99.90
48454;DHT22;34261;55.678;12.464;2024-01-07T09:25:18;-2.30;99.90
48454;DHT22;34261;55.678;12.464;2024-01-07T09:27:46;-2.20;99.90
48454;DHT22;34261;55.678;12.464;2024-01-07T09:30:12;-2.10;99.90
48454;DHT22;34261;55.678;12.464;2024-01-07T09:32:41;-2.10;99.90
48454;DHT22;34261;55.678;12.464;2024-01-07T09:35:07;-2.10;99.90
48454;DHT22;34261;55.678;12.464;2024-01-07T09:37:33;-2.10;99.90
48454;DHT22;34261;55.678;12.464;2024-01-07T09:40:02;-2.10;99.90
48454;DHT22;34261;55.678;12.464;2024-01-07T09:42:29;-2.10;99.90
48454;DHT22;34261;55.678;12.464;2024-01-07T09:44:55;-2.10;99.90
48454;DHT22;34261;55.678;12.464;2024-01-07T09:47:22;-2.00;99.90
48454;DHT22;34261;55.678;12.464;2024-01-07T09:49:49;-2.00;99.90
48454;DHT22;34261;55.678;12.464;2024-01-07T09:52:14;-1.90;99.90
48454;DHT22;34261;55.678;12.464;2024-01-07T09:54:40;-1.80;99.90
48454;DHT22;34261;55.678;12.464;2024-01-07T09:57:07;-1.70;99.90
48454;DHT22;34261;55.678;12.464;2024-01-07T09:59:36;-1.70;99.90
48454;DHT22;34261;55.678;12.464;2024-01-07T10:02:05;-1.70;99.90
48454;DHT22;34261;55.678;12.464;2024-01-07T10:04:32;-1.70;99.90
48454;DHT22;34261;55.678;12.464;2024-01-07T10:06:57;-1.70;99.90
48454;DHT22;34261;55.678;12.464;2024-01-07T10:09:27;-1.80;99.90
48454;DHT22;34261;55.678;12.464;2024-01-07T10:11:53;-1.80;99.90
48454;DHT22;34261;55.678;12.464;2024-01-07T10:14:21;-1.80;99.90
48454;DHT22;34261;55.678;12.464;2024-01-07T10:16:48;-1.80;99.90
48454;DHT22;34261;55.678;12.464;2024-01-07T10:19:24;-1.80;99.90
48454;DHT22;34261;55.678;12.464;2024-01-07T10:22:00;-1.80;99.90
48454;DHT22;34261;55.678;12.464;2024-01-07T10:24:26;-1.70;99.90
48454;DHT22;34261;55.678;12.464;2024-01-07T10:26:56;-1.70;99.90
48454;DHT22;34261;55.678;12.464;2024-01-07T10:29:22;-1.60;99.90
48454;DHT22;34261;55.678;12.464;2024-01-07T10:31:48;-1.50;99.90
48454;DHT22;34261;55.678;12.464;2024-01-07T10:34:13;-1.40;99.90
48454;DHT22;34261;55.678;12.464;2024-01-07T10:36:41;-1.30;99.90
48454;DHT22;34261;55.678;12.464;2024-01-07T10:39:06;-1.20;99.90
48454;DHT22;34261;55.678;12.464;2024-01-07T10:41:33;-1.20;99.90
48454;DHT22;34261;55.678;12.464;2024-01-07T10:44:00;-1.20;99.90
48454;DHT22;34261;55.678;12.464;2024-01-07T10:46:26;-1.10;99.90
48454;DHT22;34261;55.678;12.464;2024-01-07T10:48:59;-1.10;99.90
48454;DHT22;34261;55.678;12.464;2024-01-07T10:51:28;-1.00;99.90
48454;DHT22;34261;55.678;12.464;2024-01-07T10:53:55;-1.00;99.90
48454;DHT22;34261;55.678;12.464;2024-01-07T10:56:23;-1.00;99.90
48454;DHT22;34261;55.678;12.464;2024-01-07T10:58:52;-1.00;99.90
48454;DHT22;34261;55.678;12.464;2024-01-07T11:01:19;-1.00;99.90
48454;DHT22;34261;55.678;12.464;2024-01-07T11:04:06;-1.00;99.90
48454;DHT22;34261;55.678;12.464;2024-01-07T11:09:35;-1.10;99.90
48454;DHT22;34261;55.678;12.464;2024-01-07T11:12:01;-1.10;99.90
48454;DHT22;34261;55.678;12.464;2024-01-07T11:14:38;-1.10;99.90
48454;DHT22;34261;55.678;12.464;2024-01-07T11:17:08;-1.10;99.90
48454;DHT22;34261;55.678;12.464;2024-01-07T11:19:38;-1.10;99.90
48454;DHT22;34261;55.678;12.464;2024-01-07T11:22:26;-1.00;99.90
48454;DHT22;34261;55.678;12.464;2024-01-07T11:24:57;-1.10;99.90
48454;DHT22;34261;55.678;12.464;2024-01-07T11:27:24;-1.10;99.90
48454;DHT22;34261;55.678;12.464;2024-01-07T11:29:57;-1.10;99.90
48454;DHT22;34261;55.678;12.464;2024-01-07T11:32:24;-1.10;99.90
48454;DHT22;34261;55.678;12.464;2024-01-07T11:34:51;-1.10;99.90
48454;DHT22;34261;55.678;12.464;2024-01-07T11:37:19;-1.20;99.90
48454;DHT22;34261;55.678;12.464;2024-01-07T11:39:46;-1.20;99.90
48454;DHT22;34261;55.678;12.464;2024-01-07T11:42:13;-1.30;99.90
48454;DHT22;34261;55.678;12.464;2024-01-07T11:44:59;-1.20;99.90
48454;DHT22;34261;55.678;12.464;2024-01-07T11:47:25;-1.10;99.90
48454;DHT22;34261;55.678;12.464;2024-01-07T11:49:55;-1.30;99.90
48454;DHT22;34261;55.678;12.464;2024-01-07T11:52:21;-1.30;99.90
48454;DHT22;34261;55.678;12.464;2024-01-07T11:54:47;-1.40;99.90
48454;DHT22;34261;55.678;12.464;2024-01-07T11:57:13;-1.30;99.90
48454;DHT22;34261;55.678;12.464;2024-01-07T11:59:39;-1.30;99.90
48454;DHT22;34261;55.678;12.464;2024-01-07T12:02:05;-1.30;99.90
48454;DHT22;34261;55.678;12.464;2024-01-07T12:04:31;-1.30;99.90
48454;DHT22;34261;55.678;12.464;2024-01-07T12:07:04;-1.30;99.90
48454;DHT22;34261;55.678;12.464;2024-01-07T12:09:29;-1.30;99.90
48454;DHT22;34261;55.678;12.464;2024-01-07T12:11:56;-1.40;99.90
48454;DHT22;34261;55.678;12.464;2024-01-07T12:14:22;-1.50;99.90
48454;DHT22;34261;55.678;12.464;2024-01-07T12:16:48;-1.60;99.90
48454;DHT22;34261;55.678;12.464;2024-01-07T12:19:14;-1.50;99.90
48454;DHT22;34261;55.678;12.464;2024-01-07T12:21:39;-1.40;99.90
48454;DHT22;34261;55.678;12.464;2024-01-07T12:24:05;-1.50;99.90
48454;DHT22;34261;55.678;12.464;2024-01-07T12:26:31;-1.50;99.90
48454;DHT22;34261;55.678;12.464;2024-01-07T12:29:00;-1.40;99.90
48454;DHT22;34261;55.678;12.464;2024-01-07T12:31:32;-1.40;99.90
48454;DHT22;34261;55.678;12.464;2024-01-07T12:33:58;-1.40;99.90
48454;DHT22;34261;55.678;12.464;2024-01-07T12:36:24;-1.40;99.90
48454;DHT22;34261;55.678;12.464;2024-01-07T12:38:52;-1.40;99.90
48454;DHT22;34261;55.678;12.464;2024-01-07T12:41:21;-1.30;99.90
48454;DHT22;34261;55.678;12.464;2024-01-07T12:43:47;-1.30;99.90
48454;DHT22;34261;55.678;12.464;2024-01-07T12:46:13;-1.30;99.90
48454;DHT22;34261;55.678;12.464;2024-01-07T12:48:40;-1.30;99.90
48454;DHT22;34261;55.678;12.464;2024-01-07T12:51:06;-1.30;99.90
48454;DHT22;34261;55.678;12.464;2024-01-07T12:53:31;-1.30;99.90
48454;DHT22;34261;55.678;12.464;2024-01-07T12:55:57;-1.30;99.90
48454;DHT22;34261;55.678;12.464;2024-01-07T12:58:23;-1.30;99.90
48454;DHT22;34261;55.678;12.464;2024-01-07T13:00:48;-1.40;99.90
48454;DHT22;34261;55.678;12.464;2024-01-07T13:03:14;-1.30;99.90
48454;DHT22;34261;55.678;12.464;2024-01-07T13:05:46;-1.30;99.90
48454;DHT22;34261;55.678;12.464;2024-01-07T13:08:15;-1.30;99.90
48454;DHT22;34261;55.678;12.464;2024-01-07T13:10:41;-1.30;99.90
48454;DHT22;34261;55.678;12.464;2024-01-07T13:13:06;-1.30;99.90
48454;DHT22;34261;55.678;12.464;2024-01-07T13:15:32;-1.20;99.90
48454;DHT22;34261;55.678;12.464;2024-01-07T13:17:58;-1.10;99.90
48454;DHT22;34261;55.678;12.464;2024-01-07T13:20:24;-1.20;99.90
48454;DHT22;34261;55.678;12.464;2024-01-07T13:22:50;-1.10;99.90
48454;DHT22;34261;55.678;12.464;2024-01-07T13:25:15;-1.10;99.90
48454;DHT22;34261;55.678;12.464;2024-01-07T13:27:41;-1.20;99.90
48454;DHT22;34261;55.678;12.464;2024-01-07T13:30:09;-1.20;99.90
48454;DHT22;34261;55.678;12.464;2024-01-07T13:32:35;-1.20;99.90
48454;DHT22;34261;55.678;12.464;2024-01-07T13:35:06;-1.20;99.90
48454;DHT22;34261;55.678;12.464;2024-01-07T13:37:39;-1.20;99.90
48454;DHT22;34261;55.678;12.464;2024-01-07T13:40:09;-1.20;99.90
48454;DHT22;34261;55.678;12.464;2024-01-07T13:42:39;-1.20;99.90
48454;DHT22;34261;55.678;12.464;2024-01-07T13:45:05;-1.10;99.90
48454;DHT22;34261;55.678;12.464;2024-01-07T13:47:31;-1.10;99.90
48454;DHT22;34261;55.678;12.464;2024-01-07T13:49:58;-1.20;99.90
48454;DHT22;34261;55.678;12.464;2024-01-07T13:52:30;-1.20;99.90
48454;DHT22;34261;55.678;12.464;2024-01-07T13:54:55;-1.20;99.90
48454;DHT22;34261;55.678;12.464;2024-01-07T13:57:22;-1.20;99.90
48454;DHT22;34261;55.678;12.464;2024-01-07T13:59:48;-1.20;99.90
48454;DHT22;34261;55.678;12.464;2024-01-07T14:02:14;-1.30;99.90
48454;DHT22;34261;55.678;12.464;2024-01-07T14:04:44;-1.30;99.90
48454;DHT22;34261;55.678;12.464;2024-01-07T14:07:10;-1.30;99.90
48454;DHT22;34261;55.678;12.464;2024-01-07T14:09:37;-1.30;99.90
48454;DHT22;34261;55.678;12.464;2024-01-07T14:12:03;-1.30;99.90
48454;DHT22;34261;55.678;12.464;2024-01-07T14:14:29;-1.30;99.90
48454;DHT22;34261;55.678;12.464;2024-01-07T14:17:27;-1.30;99.90
48454;DHT22;34261;55.678;12.464;2024-01-07T14:19:52;-1.30;99.90
48454;DHT22;34261;55.678;12.464;2024-01-07T14:22:38;-1.30;99.90
48454;DHT22;34261;55.678;12.464;2024-01-07T14:25:13;-1.30;99.90
48454;DHT22;34261;55.678;12.464;2024-01-07T14:27:42;-1.30;99.90
48454;DHT22;34261;55.678;12.464;2024-01-07T14:30:09;-1.30;99.90
48454;DHT22;34261;55.678;12.464;2024-01-07T14:32:34;-1.30;99.90
48454;DHT22;34261;55.678;12.464;2024-01-07T14:35:02;-1.20;99.90
48454;DHT22;34261;55.678;12.464;2024-01-07T14:37:28;-1.30;99.90
48454;DHT22;34261;55.678;12.464;2024-01-07T14:39:54;-1.20;99.90
48454;DHT22;34261;55.678;12.464;2024-01-07T14:42:20;-1.20;99.90
48454;DHT22;34261;55.678;12.464;2024-01-07T14:44:45;-1.20;99.90
48454;DHT22;34261;55.678;12.464;2024-01-07T14:47:11;-1.20;99.90
48454;DHT22;34261;55.678;12.464;2024-01-07T14:49:37;-1.20;99.90
48454;DHT22;34261;55.678;12.464;2024-01-07T14:52:02;-1.20;99.90
48454;DHT22;34261;55.678;12.464;2024-01-07T14:54:28;-1.20;99.90
48454;DHT22;34261;55.678;12.464;2024-01-07T14:56:56;-1.20;99.90
48454;DHT22;34261;55.678;12.464;2024-01-07T14:59:22;-1.20;99.90
48454;DHT22;34261;55.678;12.464;2024-01-07T15:01:48;-1.30;99.90
48454;DHT22;34261;55.678;12.464;2024-01-07T15:04:16;-1.30;99.90
48454;DHT22;34261;55.678;12.464;2024-01-07T15:06:42;-1.30;99.90
48454;DHT22;34261;55.678;12.464;2024-01-07T15:09:09;-1.40;99.90
48454;DHT22;34261;55.678;12.464;2024-01-07T15:11:36;-1.30;99.90
48454;DHT22;34261;55.678;12.464;2024-01-07T15:14:07;-1.30;99.90
48454;DHT22;34261;55.678;12.464;2024-01-07T15:16:35;-1.30;99.90